Eastsound, WA

1:58 AM PDT on September 16, 2014 (GMT -0700)
Orcas Island | Change Station
CLOSE
Current Station
Airport
Location: Eastsound,
Elevation: 30 ft
Nearby Weather Stations

Elev 30 ft 48.71 °N, 122.91 °W | Updated 23 minutes ago

Clear
Clear
54 °F
Feels Like 54 °F
N
0
Wind Variable Wind from North

Today
High -- | Low -- °F
--% Chance of Precip.
Yesterday
High -- | Low -- °F
Precip. -- in
6:49 AM 7:22 PM
Waning Gibbous, 47% visible
Pressure 29.82 in
Visibility 10.0 miles
Clouds Clear
Dew Point 48 °F
Humidity 82%
Rainfall 0.00 in
Snow Depth Not available.
UV 0 out of 12
Pollen 1.30 out of 12
Air Quality Not available.
Flu Activity Not available.
METAR KORS 160835Z AUTO 00000KT 10SM CLR 12/09 A2982 RMK AO2

More Conditions Fewer Conditions

Pressure 29.82 in
Visibility 10.0 miles
Clouds Clear
Dew Point 48 °F
Humidity 82%
Rainfall 0.00 in
Snow Depth Not available.
UV 0 out of 12
Pollen 1.30 out of 12
Air Quality Not available.
Flu Activity Not available.
METAR KORS 160835Z AUTO 00000KT 10SM CLR 12/09 A2982 RMK AO2

More Conditions Fewer Conditions

10-Day Weather Forecast

Almanac

Astronomy

Sep. 16, 2014 Rise Set
Actual Time 6:49 AM PDT 7:22 PM PDT
Civil Twilight 6:18 AM PDT 7:53 PM PDT
Nautical Twilight 5:40 AM PDT 8:31 PM PDT
Astronomical Twilight 5:01 AM PDT 9:10 PM PDT
Moon No Moon Rise 3:11 PM PDT
Length of Visible Light 13h 35m
Length of Day
12h 32m
Tomorrow will be 3m 32s shorter.
Waning Gibbous, 47% of the Moon is Illuminated
Today
Waning Gibbous
Sep 24
New
Oct 1
First Quarter
Oct 8
Full
Oct 15
Last Quarter

Today's Extremes

State Highs State Lows

Community

WunderPhotos

Upload Photos

1,753,712 photos uploaded!

WunderBlogs® & News

Nearby

Snow Depth

Station Depth Elevation
Beaver Pass 0 in 3620 ft
Dungeness 0 in 4100 ft
Green Lake 0 in 6000 ft
Moses Mountain 1 in 5300 ft
Potato Hill 0 in 4500 ft

Earthquake Activity

City Distance Mag. Time & Date
No recent earthquake activity has been reported nearby.
Minimum magnitude displayed is 2.5.

Coastal Water Temperatures

Place Temperature
Port Townsend, WA 52.0 °F
Friday Harbor, WA 53.1 °F
Port Angeles, WA 51.1 °F

Nearby Weather Stations